Terminal Aerodrome Forecast
Issued by NWS

Home | Current Version | Previous Version | Text Only | Print | Product List | Glossary On
Versions: 1 2 3 4 5 6 7 8 9 10 11 12 13 14 15 16 17
483
FTUS43 KDVN 280915 AAA
TAFCID
TAF AMD
KCID 280915Z 2809/2906 32008KT P6SM BKN025
     FM281600 34011G17KT P6SM OVC030
     FM281900 34013G19KT P6SM OVC040=

USA.gov is the U.S. government's official web portal to all federal, state and local government web resources and services.